sensor_id;sensor_type;location;lat;lon;timestamp;pressure;altitude;pressure_sealevel;temperature;humidity
27613;BME280;15036;48.094;-1.690;2023-03-26T00:01:26;99731.81;;;14.50;59.95
27613;BME280;15036;48.094;-1.690;2023-03-26T00:03:54;99747.81;;;14.53;58.80
27613;BME280;15036;48.094;-1.690;2023-03-26T00:06:29;99780.16;;;14.06;59.93
27613;BME280;15036;48.094;-1.690;2023-03-26T00:08:56;99762.47;;;13.85;59.42
27613;BME280;15036;48.094;-1.690;2023-03-26T00:11:22;99796.16;;;13.69;59.40
27613;BME280;15036;48.094;-1.690;2023-03-26T00:13:48;99811.34;;;13.88;58.76
27613;BME280;15036;48.094;-1.690;2023-03-26T00:16:15;99818.00;;;13.92;58.91
27613;BME280;15036;48.094;-1.690;2023-03-26T00:18:41;99825.03;;;14.00;59.06
27613;BME280;15036;48.094;-1.690;2023-03-26T00:21:07;99813.06;;;14.46;57.95
27613;BME280;15036;48.094;-1.690;2023-03-26T00:23:34;99839.81;;;13.59;59.69
27613;BME280;15036;48.094;-1.690;2023-03-26T00:26:01;99848.13;;;13.76;59.43
27613;BME280;15036;48.094;-1.690;2023-03-26T00:28:27;99844.53;;;13.75;59.52
27613;BME280;15036;48.094;-1.690;2023-03-26T00:31:00;99863.28;;;14.30;58.16
27613;BME280;15036;48.094;-1.690;2023-03-26T00:33:26;99864.06;;;14.02;58.84
27613;BME280;15036;48.094;-1.690;2023-03-26T00:35:52;99880.53;;;13.90;58.74
27613;BME280;15036;48.094;-1.690;2023-03-26T00:38:18;99889.56;;;14.03;58.55
27613;BME280;15036;48.094;-1.690;2023-03-26T00:40:44;99893.16;;;14.03;58.62
27613;BME280;15036;48.094;-1.690;2023-03-26T00:43:12;99877.34;;;13.82;59.25
27613;BME280;15036;48.094;-1.690;2023-03-26T00:46:01;99887.56;;;14.26;58.42
27613;BME280;15036;48.094;-1.690;2023-03-26T00:48:27;99885.72;;;13.52;60.18
27613;BME280;15036;48.094;-1.690;2023-03-26T00:50:54;99885.44;;;13.77;59.38
27613;BME280;15036;48.094;-1.690;2023-03-26T00:53:20;99877.72;;;13.62;59.56
27613;BME280;15036;48.094;-1.690;2023-03-26T00:55:46;99893.72;;;13.42;60.38
27613;BME280;15036;48.094;-1.690;2023-03-26T00:58:13;99890.03;;;13.37;60.26
27613;BME280;15036;48.094;-1.690;2023-03-26T01:01:03;99906.09;;;13.22;60.66
27613;BME280;15036;48.094;-1.690;2023-03-26T01:03:31;99908.25;;;13.66;59.18
27613;BME280;15036;48.094;-1.690;2023-03-26T01:06:02;99907.53;;;13.70;59.15
27613;BME280;15036;48.094;-1.690;2023-03-26T01:08:33;99909.69;;;13.68;59.69
27613;BME280;15036;48.094;-1.690;2023-03-26T01:11:01;99909.91;;;13.78;59.22
27613;BME280;15036;48.094;-1.690;2023-03-26T01:13:31;99921.34;;;13.75;59.53
27613;BME280;15036;48.094;-1.690;2023-03-26T01:15:58;99921.22;;;13.82;59.16
27613;BME280;15036;48.094;-1.690;2023-03-26T01:18:27;99932.28;;;13.99;58.74
27613;BME280;15036;48.094;-1.690;2023-03-26T01:20:59;99934.22;;;13.63;59.59
27613;BME280;15036;48.094;-1.690;2023-03-26T01:23:56;99931.81;;;14.02;58.49
27613;BME280;15036;48.094;-1.690;2023-03-26T01:26:34;99929.13;;;13.78;58.75
27613;BME280;15036;48.094;-1.690;2023-03-26T01:29:04;99936.25;;;13.79;58.54
27613;BME280;15036;48.094;-1.690;2023-03-26T01:31:42;99923.75;;;13.60;59.37
27613;BME280;15036;48.094;-1.690;2023-03-26T01:34:37;99933.94;;;14.11;58.37
27613;BME280;15036;48.094;-1.690;2023-03-26T01:37:12;99942.75;;;14.13;58.24
27613;BME280;15036;48.094;-1.690;2023-03-26T01:40:16;99957.00;;;13.75;58.78
27613;BME280;15036;48.094;-1.690;2023-03-26T01:42:55;99944.78;;;14.29;57.34
27613;BME280;15036;48.094;-1.690;2023-03-26T01:45:28;99946.75;;;13.71;58.94
27613;BME280;15036;48.094;-1.690;2023-03-26T01:47:56;99947.09;;;13.98;58.33
27613;BME280;15036;48.094;-1.690;2023-03-26T01:50:22;99940.88;;;14.14;57.55
27613;BME280;15036;48.094;-1.690;2023-03-26T01:52:47;99952.81;;;13.84;58.20
27613;BME280;15036;48.094;-1.690;2023-03-26T01:55:12;99942.41;;;14.10;57.31
27613;BME280;15036;48.094;-1.690;2023-03-26T02:00:47;99922.03;;;14.06;57.37
27613;BME280;15036;48.094;-1.690;2023-03-26T02:03:24;99922.56;;;13.68;57.79
27613;BME280;15036;48.094;-1.690;2023-03-26T02:06:18;99931.56;;;14.03;57.43
27613;BME280;15036;48.094;-1.690;2023-03-26T02:08:52;99928.88;;;13.68;57.74
27613;BME280;15036;48.094;-1.690;2023-03-26T02:11:21;99927.13;;;14.14;57.04
27613;BME280;15036;48.094;-1.690;2023-03-26T02:13:47;99923.25;;;13.98;57.25
27613;BME280;15036;48.094;-1.690;2023-03-26T02:16:14;99931.47;;;13.86;57.61
27613;BME280;15036;48.094;-1.690;2023-03-26T02:18:44;99933.84;;;13.83;57.77
27613;BME280;15036;48.094;-1.690;2023-03-26T02:21:15;99938.81;;;14.21;56.89
27613;BME280;15036;48.094;-1.690;2023-03-26T02:23:45;99931.81;;;14.02;57.45
27613;BME280;15036;48.094;-1.690;2023-03-26T02:26:14;99925.72;;;14.11;57.03
27613;BME280;15036;48.094;-1.690;2023-03-26T02:28:40;99922.06;;;13.94;57.81
27613;BME280;15036;48.094;-1.690;2023-03-26T02:31:05;99917.84;;;14.03;57.69
27613;BME280;15036;48.094;-1.690;2023-03-26T02:33:34;99910.47;;;14.04;57.03
27613;BME280;15036;48.094;-1.690;2023-03-26T02:35:59;99916.63;;;14.34;56.50
27613;BME280;15036;48.094;-1.690;2023-03-26T02:38:27;99921.22;;;14.45;56.18
27613;BME280;15036;48.094;-1.690;2023-03-26T02:40:54;99915.38;;;14.41;56.56
27613;BME280;15036;48.094;-1.690;2023-03-26T02:43:20;99915.78;;;14.61;55.91
27613;BME280;15036;48.094;-1.690;2023-03-26T02:45:46;99913.81;;;14.73;55.55
27613;BME280;15036;48.094;-1.690;2023-03-26T02:48:12;99907.78;;;14.60;55.91
27613;BME280;15036;48.094;-1.690;2023-03-26T02:50:38;99903.50;;;14.81;55.44
27613;BME280;15036;48.094;-1.690;2023-03-26T02:53:03;99901.00;;;14.79;55.13
27613;BME280;15036;48.094;-1.690;2023-03-26T02:55:28;99896.16;;;14.86;54.92
27613;BME280;15036;48.094;-1.690;2023-03-26T02:57:54;99904.53;;;14.91;55.11
27613;BME280;15036;48.094;-1.690;2023-03-26T03:00:20;99893.25;;;14.76;55.32
27613;BME280;15036;48.094;-1.690;2023-03-26T03:02:49;99891.66;;;14.80;54.92
27613;BME280;15036;48.094;-1.690;2023-03-26T03:05:17;99885.75;;;14.88;54.70
27613;BME280;15036;48.094;-1.690;2023-03-26T03:07:43;99883.72;;;14.95;54.72
27613;BME280;15036;48.094;-1.690;2023-03-26T03:10:11;99874.78;;;14.88;54.92
27613;BME280;15036;48.094;-1.690;2023-03-26T03:12:38;99886.19;;;14.97;54.47
27613;BME280;15036;48.094;-1.690;2023-03-26T03:15:04;99891.03;;;15.06;54.38
27613;BME280;15036;48.094;-1.690;2023-03-26T03:17:31;99885.84;;;14.76;55.05
27613;BME280;15036;48.094;-1.690;2023-03-26T03:19:56;99881.44;;;14.92;54.87
27613;BME280;15036;48.094;-1.690;2023-03-26T03:22:22;99880.63;;;15.08;54.43
27613;BME280;15036;48.094;-1.690;2023-03-26T03:24:47;99877.22;;;15.01;54.80
27613;BME280;15036;48.094;-1.690;2023-03-26T03:27:13;99880.56;;;15.03;54.66
27613;BME280;15036;48.094;-1.690;2023-03-26T03:29:39;99885.06;;;15.09;54.58
27613;BME280;15036;48.094;-1.690;2023-03-26T03:32:05;99883.16;;;14.82;55.09
27613;BME280;15036;48.094;-1.690;2023-03-26T03:34:30;99887.28;;;15.29;54.14
27613;BME280;15036;48.094;-1.690;2023-03-26T03:36:56;99880.69;;;15.13;54.21
27613;BME280;15036;48.094;-1.690;2023-03-26T03:39:23;99883.38;;;15.08;54.37
27613;BME280;15036;48.094;-1.690;2023-03-26T03:41:48;99871.69;;;14.85;54.87
27613;BME280;15036;48.094;-1.690;2023-03-26T03:44:14;99870.78;;;14.96;54.71
27613;BME280;15036;48.094;-1.690;2023-03-26T03:46:39;99867.47;;;15.27;54.15
27613;BME280;15036;48.094;-1.690;2023-03-26T03:49:05;99874.13;;;15.14;54.42
27613;BME280;15036;48.094;-1.690;2023-03-26T03:51:30;99866.09;;;15.29;54.19
27613;BME280;15036;48.094;-1.690;2023-03-26T03:53:55;99864.19;;;15.13;54.35
27613;BME280;15036;48.094;-1.690;2023-03-26T03:56:21;99860.38;;;14.98;55.57
27613;BME280;15036;48.094;-1.690;2023-03-26T03:58:48;99855.44;;;13.99;58.25
27613;BME280;15036;48.094;-1.690;2023-03-26T04:01:14;99846.63;;;14.08;58.90
27613;BME280;15036;48.094;-1.690;2023-03-26T04:03:41;99847.78;;;13.72;60.30
27613;BME280;15036;48.094;-1.690;2023-03-26T04:06:10;99848.72;;;13.78;61.12
27613;BME280;15036;48.094;-1.690;2023-03-26T04:08:36;99858.44;;;14.37;59.47
27613;BME280;15036;48.094;-1.690;2023-03-26T04:11:02;99856.59;;;13.74;60.42
27613;BME280;15036;48.094;-1.690;2023-03-26T04:13:28;99856.47;;;13.69;60.61
27613;BME280;15036;48.094;-1.690;2023-03-26T04:15:54;99867.47;;;14.09;59.35
27613;BME280;15036;48.094;-1.690;2023-03-26T04:18:19;99854.13;;;13.50;59.78
27613;BME280;15036;48.094;-1.690;2023-03-26T04:20:46;99838.03;;;13.53;59.12
27613;BME280;15036;48.094;-1.690;2023-03-26T04:23:17;99851.34;;;13.73;58.53
27613;BME280;15036;48.094;-1.690;2023-03-26T04:25:47;99842.75;;;13.81;57.79
27613;BME280;15036;48.094;-1.690;2023-03-26T04:28:24;99839.06;;;13.75;57.38
27613;BME280;15036;48.094;-1.690;2023-03-26T04:30:54;99835.22;;;13.88;56.91
27613;BME280;15036;48.094;-1.690;2023-03-26T04:33:20;99839.00;;;14.27;56.05
27613;BME280;15036;48.094;-1.690;2023-03-26T04:35:46;99836.22;;;14.10;56.18
27613;BME280;15036;48.094;-1.690;2023-03-26T04:38:15;99843.66;;;13.86;56.50
27613;BME280;15036;48.094;-1.690;2023-03-26T04:40:42;99844.25;;;14.00;55.89
27613;BME280;15036;48.094;-1.690;2023-03-26T04:43:15;99840.88;;;14.10;56.01
27613;BME280;15036;48.094;-1.690;2023-03-26T04:45:42;99850.75;;;13.82;56.34
27613;BME280;15036;48.094;-1.690;2023-03-26T04:48:10;99851.09;;;13.86;56.35
27613;BME280;15036;48.094;-1.690;2023-03-26T04:50:40;99856.16;;;13.43;57.59
27613;BME280;15036;48.094;-1.690;2023-03-26T04:53:06;99860.41;;;13.73;57.12
27613;BME280;15036;48.094;-1.690;2023-03-26T04:55:40;99868.91;;;13.60;57.44
27613;BME280;15036;48.094;-1.690;2023-03-26T04:58:08;99876.00;;;13.84;57.29
27613;BME280;15036;48.094;-1.690;2023-03-26T05:00:34;99881.19;;;13.46;58.28
27613;BME280;15036;48.094;-1.690;2023-03-26T05:02:59;99889.88;;;13.43;58.65
27613;BME280;15036;48.094;-1.690;2023-03-26T05:05:26;99875.09;;;13.67;57.78
27613;BME280;15036;48.094;-1.690;2023-03-26T05:07:53;99873.41;;;13.78;57.61
27613;BME280;15036;48.094;-1.690;2023-03-26T05:10:20;99867.97;;;14.06;56.93
27613;BME280;15036;48.094;-1.690;2023-03-26T05:12:46;99875.25;;;14.12;56.71
27613;BME280;15036;48.094;-1.690;2023-03-26T05:15:13;99856.22;;;14.34;56.35
27613;BME280;15036;48.094;-1.690;2023-03-26T05:17:38;99855.41;;;14.22;56.45
27613;BME280;15036;48.094;-1.690;2023-03-26T05:20:26;99871.59;;;14.35;56.24
27613;BME280;15036;48.094;-1.690;2023-03-26T05:22:53;99877.81;;;14.30;56.39
27613;BME280;15036;48.094;-1.690;2023-03-26T05:25:19;99872.78;;;14.39;56.17
27613;BME280;15036;48.094;-1.690;2023-03-26T05:27:45;99894.78;;;14.16;56.75
27613;BME280;15036;48.094;-1.690;2023-03-26T05:30:16;99897.91;;;14.08;57.29
27613;BME280;15036;48.094;-1.690;2023-03-26T05:32:45;99895.31;;;14.01;57.01
27613;BME280;15036;48.094;-1.690;2023-03-26T05:35:12;99905.22;;;13.90;57.36
27613;BME280;15036;48.094;-1.690;2023-03-26T05:37:41;99897.19;;;14.12;56.75
27613;BME280;15036;48.094;-1.690;2023-03-26T05:40:10;99892.47;;;13.84;57.46
27613;BME280;15036;48.094;-1.690;2023-03-26T05:42:38;99897.69;;;13.98;57.42
27613;BME280;15036;48.094;-1.690;2023-03-26T05:45:07;99900.03;;;13.54;58.30
27613;BME280;15036;48.094;-1.690;2023-03-26T05:47:33;99898.94;;;13.78;58.26
27613;BME280;15036;48.094;-1.690;2023-03-26T05:49:58;99890.09;;;13.88;57.33
27613;BME280;15036;48.094;-1.690;2023-03-26T05:52:24;99908.47;;;13.87;57.58
27613;BME280;15036;48.094;-1.690;2023-03-26T05:54:50;99915.13;;;13.91;57.28
27613;BME280;15036;48.094;-1.690;2023-03-26T05:57:15;99907.06;;;13.39;58.18
27613;BME280;15036;48.094;-1.690;2023-03-26T05:59:41;99911.47;;;13.51;58.64
27613;BME280;15036;48.094;-1.690;2023-03-26T06:02:08;99918.97;;;13.56;58.25
27613;BME280;15036;48.094;-1.690;2023-03-26T06:04:34;99928.25;;;13.43;58.50
27613;BME280;15036;48.094;-1.690;2023-03-26T06:06:59;99931.00;;;13.32;58.70
27613;BME280;15036;48.094;-1.690;2023-03-26T06:09:26;99925.16;;;13.28;59.23
27613;BME280;15036;48.094;-1.690;2023-03-26T06:11:51;99927.91;;;13.28;58.91
27613;BME280;15036;48.094;-1.690;2023-03-26T06:14:17;99922.41;;;13.17;59.44
27613;BME280;15036;48.094;-1.690;2023-03-26T06:16:42;99909.91;;;13.44;58.31
27613;BME280;15036;48.094;-1.690;2023-03-26T06:19:09;99914.19;;;13.28;58.81
27613;BME280;15036;48.094;-1.690;2023-03-26T06:21:34;99899.91;;;13.15;59.08
27613;BME280;15036;48.094;-1.690;2023-03-26T06:24:00;99910.03;;;13.37;58.61
27613;BME280;15036;48.094;-1.690;2023-03-26T06:26:25;99906.31;;;13.20;59.08
27613;BME280;15036;48.094;-1.690;2023-03-26T06:28:50;99903.34;;;13.33;58.73
27613;BME280;15036;48.094;-1.690;2023-03-26T06:31:17;99910.25;;;13.47;58.20
27613;BME280;15036;48.094;-1.690;2023-03-26T06:33:43;99906.81;;;13.17;58.65
27613;BME280;15036;48.094;-1.690;2023-03-26T06:36:09;99907.53;;;13.24;58.68
27613;BME280;15036;48.094;-1.690;2023-03-26T06:38:34;99910.03;;;13.26;59.30
27613;BME280;15036;48.094;-1.690;2023-03-26T06:41:04;99916.81;;;13.23;59.16
27613;BME280;15036;48.094;-1.690;2023-03-26T06:43:30;99918.38;;;13.19;59.33
27613;BME280;15036;48.094;-1.690;2023-03-26T06:46:01;99929.78;;;13.16;60.08
27613;BME280;15036;48.094;-1.690;2023-03-26T06:48:27;99930.53;;;13.46;58.88
27613;BME280;15036;48.094;-1.690;2023-03-26T06:50:52;99925.91;;;13.58;58.67
27613;BME280;15036;48.094;-1.690;2023-03-26T06:53:17;99928.63;;;13.81;58.31
27613;BME280;15036;48.094;-1.690;2023-03-26T06:55:43;99926.13;;;13.68;58.81
27613;BME280;15036;48.094;-1.690;2023-03-26T06:58:10;99919.19;;;13.77;58.63
27613;BME280;15036;48.094;-1.690;2023-03-26T07:00:36;99919.03;;;14.07;57.69
27613;BME280;15036;48.094;-1.690;2023-03-26T07:03:05;99914.84;;;14.05;58.03
27613;BME280;15036;48.094;-1.690;2023-03-26T07:05:30;99919.06;;;13.96;58.14
27613;BME280;15036;48.094;-1.690;2023-03-26T07:07:56;99920.50;;;13.86;58.83
27613;BME280;15036;48.094;-1.690;2023-03-26T07:10:22;99911.94;;;14.23;57.84
27613;BME280;15036;48.094;-1.690;2023-03-26T07:12:47;99912.91;;;14.40;57.84
27613;BME280;15036;48.094;-1.690;2023-03-26T07:15:13;99906.94;;;14.31;57.67
27613;BME280;15036;48.094;-1.690;2023-03-26T07:17:38;99910.03;;;14.35;57.71
27613;BME280;15036;48.094;-1.690;2023-03-26T07:20:05;99906.72;;;14.61;57.10
27613;BME280;15036;48.094;-1.690;2023-03-26T07:22:31;99904.81;;;14.78;57.10
27613;BME280;15036;48.094;-1.690;2023-03-26T07:24:57;99900.13;;;14.62;57.14
27613;BME280;15036;48.094;-1.690;2023-03-26T07:30:11;99909.84;;;14.98;56.88
27613;BME280;15036;48.094;-1.690;2023-03-26T07:46:20;99893.13;;;15.32;55.73
27613;BME280;15036;48.094;-1.690;2023-03-26T07:48:48;99891.41;;;15.43;55.32
27613;BME280;15036;48.094;-1.690;2023-03-26T07:51:15;99888.75;;;15.70;54.89
27613;BME280;15036;48.094;-1.690;2023-03-26T07:53:43;99895.94;;;15.37;55.93
27613;BME280;15036;48.094;-1.690;2023-03-26T08:10:20;99943.44;;;14.43;61.86
27613;BME280;15036;48.094;-1.690;2023-03-26T08:15:55;99921.34;;;13.29;65.24
27613;BME280;15036;48.094;-1.690;2023-03-26T08:18:26;99901.81;;;13.60;65.14
27613;BME280;15036;48.094;-1.690;2023-03-26T08:20:59;99956.13;;;12.58;68.72
27613;BME280;15036;48.094;-1.690;2023-03-26T08:23:35;99953.53;;;11.97;68.35
27613;BME280;15036;48.094;-1.690;2023-03-26T08:26:40;99957.22;;;11.42;70.03
27613;BME280;15036;48.094;-1.690;2023-03-26T08:29:24;99948.53;;;12.12;68.74
27613;BME280;15036;48.094;-1.690;2023-03-26T08:31:51;99939.00;;;11.11;70.72
27613;BME280;15036;48.094;-1.690;2023-03-26T08:34:17;99952.50;;;12.16;69.32
27613;BME280;15036;48.094;-1.690;2023-03-26T08:36:43;99952.63;;;12.03;68.19
27613;BME280;15036;48.094;-1.690;2023-03-26T08:39:09;99955.75;;;11.64;68.83
27613;BME280;15036;48.094;-1.690;2023-03-26T08:42:03;99944.09;;;12.29;68.01
27613;BME280;15036;48.094;-1.690;2023-03-26T09:00:38;99962.31;;;11.38;68.23
27613;BME280;15036;48.094;-1.690;2023-03-26T09:05:56;99969.47;;;11.08;69.49
27613;BME280;15036;48.094;-1.690;2023-03-26T09:26:03;99968.25;;;11.53;67.97
27613;BME280;15036;48.094;-1.690;2023-03-26T09:29:05;99971.09;;;11.65;67.46
27613;BME280;15036;48.094;-1.690;2023-03-26T09:34:30;99966.13;;;11.55;67.87
27613;BME280;15036;48.094;-1.690;2023-03-26T09:37:25;99949.50;;;12.36;65.83
27613;BME280;15036;48.094;-1.690;2023-03-26T09:40:20;99955.59;;;12.38;65.89
27613;BME280;15036;48.094;-1.690;2023-03-26T09:56:18;99972.38;;;12.23;68.15
27613;BME280;15036;48.094;-1.690;2023-03-26T10:01:42;99970.06;;;12.86;66.44
27613;BME280;15036;48.094;-1.690;2023-03-26T10:17:41;99946.50;;;13.26;64.82
27613;BME280;15036;48.094;-1.690;2023-03-26T10:25:50;99930.91;;;13.61;64.56
27613;BME280;15036;48.094;-1.690;2023-03-26T10:34:00;99947.94;;;13.98;63.89
27613;BME280;15036;48.094;-1.690;2023-03-26T10:36:33;99941.84;;;13.96;63.50
27613;BME280;15036;48.094;-1.690;2023-03-26T10:52:51;99950.25;;;14.69;63.16
27613;BME280;15036;48.094;-1.690;2023-03-26T10:55:21;99945.34;;;14.99;63.44
27613;BME280;15036;48.094;-1.690;2023-03-26T10:57:57;99947.75;;;15.12;63.13
27613;BME280;15036;48.094;-1.690;2023-03-26T11:00:27;99951.03;;;14.53;62.76
27613;BME280;15036;48.094;-1.690;2023-03-26T11:16:21;99967.19;;;14.26;63.26
27613;BME280;15036;48.094;-1.690;2023-03-26T11:19:10;99970.44;;;14.35;62.90
27613;BME280;15036;48.094;-1.690;2023-03-26T11:27:24;99973.03;;;14.81;62.02
27613;BME280;15036;48.094;-1.690;2023-03-26T11:35:07;99974.44;;;14.84;61.25
27613;BME280;15036;48.094;-1.690;2023-03-26T11:37:41;99982.78;;;14.89;61.09
27613;BME280;15036;48.094;-1.690;2023-03-26T11:40:28;99985.38;;;15.40;60.28
27613;BME280;15036;48.094;-1.690;2023-03-26T11:43:02;99992.06;;;14.71;60.96
27613;BME280;15036;48.094;-1.690;2023-03-26T11:45:31;99992.25;;;14.81;61.59
27613;BME280;15036;48.094;-1.690;2023-03-26T11:48:13;99991.69;;;14.96;60.80
27613;BME280;15036;48.094;-1.690;2023-03-26T11:50:56;99986.41;;;15.50;60.22
27613;BME280;15036;48.094;-1.690;2023-03-26T11:53:28;99990.16;;;15.94;60.24
27613;BME280;15036;48.094;-1.690;2023-03-26T11:58:33;99984.47;;;15.68;59.49
27613;BME280;15036;48.094;-1.690;2023-03-26T12:01:04;99986.63;;;15.32;59.96
27613;BME280;15036;48.094;-1.690;2023-03-26T12:03:37;99996.13;;;15.25;59.82
27613;BME280;15036;48.094;-1.690;2023-03-26T12:06:04;100000.00;;;15.12;59.11
27613;BME280;15036;48.094;-1.690;2023-03-26T12:08:37;100007.22;;;14.73;60.69
27613;BME280;15036;48.094;-1.690;2023-03-26T12:11:07;100000.41;;;15.04;60.62
27613;BME280;15036;48.094;-1.690;2023-03-26T12:16:14;99997.31;;;15.17;60.12
27613;BME280;15036;48.094;-1.690;2023-03-26T12:18:41;99995.91;;;15.76;59.34
27613;BME280;15036;48.094;-1.690;2023-03-26T12:21:18;99999.25;;;15.78;59.46
27613;BME280;15036;48.094;-1.690;2023-03-26T12:26:20;100005.41;;;15.85;59.51
27613;BME280;15036;48.094;-1.690;2023-03-26T12:28:49;100020.63;;;16.26;58.39
27613;BME280;15036;48.094;-1.690;2023-03-26T12:31:17;100013.66;;;16.40;57.94
27613;BME280;15036;48.094;-1.690;2023-03-26T12:33:45;100020.09;;;16.89;56.88
27613;BME280;15036;48.094;-1.690;2023-03-26T12:36:24;100013.84;;;16.33;58.17
27613;BME280;15036;48.094;-1.690;2023-03-26T12:38:52;100013.44;;;15.70;59.37
27613;BME280;15036;48.094;-1.690;2023-03-26T12:41:19;100009.25;;;15.84;57.17
27613;BME280;15036;48.094;-1.690;2023-03-26T12:43:50;100018.00;;;16.36;55.20
27613;BME280;15036;48.094;-1.690;2023-03-26T12:46:25;100023.50;;;15.98;56.37
27613;BME280;15036;48.094;-1.690;2023-03-26T12:48:57;100013.16;;;15.72;54.37
27613;BME280;15036;48.094;-1.690;2023-03-26T12:51:48;100014.91;;;15.94;53.27
27613;BME280;15036;48.094;-1.690;2023-03-26T13:00:13;100018.47;;;16.11;50.20
27613;BME280;15036;48.094;-1.690;2023-03-26T13:08:53;100006.69;;;17.51;46.83
27613;BME280;15036;48.094;-1.690;2023-03-26T13:14:59;100018.50;;;17.78;46.06
27613;BME280;15036;48.094;-1.690;2023-03-26T13:20:05;100019.56;;;18.08;45.46
27613;BME280;15036;48.094;-1.690;2023-03-26T13:22:56;100034.59;;;17.86;44.89
27613;BME280;15036;48.094;-1.690;2023-03-26T13:25:33;100044.72;;;17.75;46.50
27613;BME280;15036;48.094;-1.690;2023-03-26T13:30:40;100047.41;;;16.69;48.65
27613;BME280;15036;48.094;-1.690;2023-03-26T13:33:20;100068.22;;;16.43;50.13
27613;BME280;15036;48.094;-1.690;2023-03-26T13:35:57;100075.06;;;16.02;52.84
27613;BME280;15036;48.094;-1.690;2023-03-26T13:47:02;100112.09;;;13.89;63.16
27613;BME280;15036;48.094;-1.690;2023-03-26T13:49:45;100101.94;;;13.90;64.49
27613;BME280;15036;48.094;-1.690;2023-03-26T13:52:26;100102.69;;;15.06;64.05
27613;BME280;15036;48.094;-1.690;2023-03-26T13:55:18;100117.69;;;16.00;63.15
27613;BME280;15036;48.094;-1.690;2023-03-26T13:57:52;100101.16;;;16.50;61.83
27613;BME280;15036;48.094;-1.690;2023-03-26T14:00:31;100108.06;;;16.52;59.12
27613;BME280;15036;48.094;-1.690;2023-03-26T14:03:14;100109.38;;;17.09;58.75
27613;BME280;15036;48.094;-1.690;2023-03-26T14:05:47;100107.78;;;17.88;58.65
27613;BME280;15036;48.094;-1.690;2023-03-26T14:08:20;100108.91;;;19.13;58.05
27613;BME280;15036;48.094;-1.690;2023-03-26T14:10:54;100110.19;;;17.80;55.19
27613;BME280;15036;48.094;-1.690;2023-03-26T14:15:56;100130.03;;;17.50;55.89
27613;BME280;15036;48.094;-1.690;2023-03-26T14:24:52;100152.75;;;17.14;58.54
27613;BME280;15036;48.094;-1.690;2023-03-26T14:35:58;100170.03;;;15.32;59.74
27613;BME280;15036;48.094;-1.690;2023-03-26T14:38:38;100169.16;;;15.03;54.73
27613;BME280;15036;48.094;-1.690;2023-03-26T14:41:47;100191.09;;;15.94;56.24
27613;BME280;15036;48.094;-1.690;2023-03-26T14:55:00;100200.78;;;18.09;45.49
27613;BME280;15036;48.094;-1.690;2023-03-26T14:57:50;100205.16;;;17.79;46.01
27613;BME280;15036;48.094;-1.690;2023-03-26T15:03:42;100211.84;;;18.41;44.79
27613;BME280;15036;48.094;-1.690;2023-03-26T15:27:33;100284.41;;;17.02;45.48
27613;BME280;15036;48.094;-1.690;2023-03-26T15:44:52;100315.22;;;17.15;44.56
27613;BME280;15036;48.094;-1.690;2023-03-26T15:50:30;100341.84;;;17.05;45.69
27613;BME280;15036;48.094;-1.690;2023-03-26T15:53:23;100332.81;;;16.93;45.58
27613;BME280;15036;48.094;-1.690;2023-03-26T16:01:16;100359.00;;;19.07;40.72
27613;BME280;15036;48.094;-1.690;2023-03-26T16:03:56;100380.28;;;18.04;41.66
27613;BME280;15036;48.094;-1.690;2023-03-26T16:06:45;100364.41;;;17.95;41.48
27613;BME280;15036;48.094;-1.690;2023-03-26T16:11:53;100377.06;;;18.12;41.97
27613;BME280;15036;48.094;-1.690;2023-03-26T16:14:23;100387.47;;;18.05;41.96
27613;BME280;15036;48.094;-1.690;2023-03-26T16:16:58;100400.00;;;17.20;43.58
27613;BME280;15036;48.094;-1.690;2023-03-26T16:19:30;100406.06;;;18.32;42.29
27613;BME280;15036;48.094;-1.690;2023-03-26T16:22:01;100410.44;;;17.34;43.38
27613;BME280;15036;48.094;-1.690;2023-03-26T16:24:31;100422.63;;;18.10;42.84
27613;BME280;15036;48.094;-1.690;2023-03-26T16:27:01;100453.09;;;18.15;41.76
27613;BME280;15036;48.094;-1.690;2023-03-26T16:30:14;100446.22;;;18.61;41.08
27613;BME280;15036;48.094;-1.690;2023-03-26T16:32:44;100447.38;;;18.65;40.75
27613;BME280;15036;48.094;-1.690;2023-03-26T16:37:41;100444.91;;;19.22;40.30
27613;BME280;15036;48.094;-1.690;2023-03-26T16:43:04;100476.06;;;19.34;40.39
27613;BME280;15036;48.094;-1.690;2023-03-26T16:45:49;100466.03;;;19.96;39.82
27613;BME280;15036;48.094;-1.690;2023-03-26T16:48:39;100479.63;;;19.61;40.42
27613;BME280;15036;48.094;-1.690;2023-03-26T17:01:46;100520.13;;;18.27;43.15
27613;BME280;15036;48.094;-1.690;2023-03-26T17:04:18;100512.88;;;18.04;42.57
27613;BME280;15036;48.094;-1.690;2023-03-26T17:12:38;100558.06;;;19.40;41.17
27613;BME280;15036;48.094;-1.690;2023-03-26T17:15:33;100549.69;;;18.27;43.04
27613;BME280;15036;48.094;-1.690;2023-03-26T17:23:55;100562.44;;;18.11;44.14
27613;BME280;15036;48.094;-1.690;2023-03-26T17:29:10;100572.94;;;17.92;44.41
27613;BME280;15036;48.094;-1.690;2023-03-26T17:34:39;100612.16;;;16.93;46.70
27613;BME280;15036;48.094;-1.690;2023-03-26T17:44:43;100635.16;;;17.67;46.95
27613;BME280;15036;48.094;-1.690;2023-03-26T17:50:02;100659.88;;;16.82;48.18
27613;BME280;15036;48.094;-1.690;2023-03-26T17:55:06;100680.50;;;16.68;49.13
27613;BME280;15036;48.094;-1.690;2023-03-26T17:57:39;100691.25;;;16.35;49.79
27613;BME280;15036;48.094;-1.690;2023-03-26T18:00:06;100693.09;;;16.64;49.80
27613;BME280;15036;48.094;-1.690;2023-03-26T18:02:40;100699.53;;;16.46;49.77
27613;BME280;15036;48.094;-1.690;2023-03-26T18:05:09;100709.03;;;16.85;49.24
27613;BME280;15036;48.094;-1.690;2023-03-26T18:07:45;100715.09;;;16.18;50.60
27613;BME280;15036;48.094;-1.690;2023-03-26T18:18:17;100714.91;;;15.24;52.43
27613;BME280;15036;48.094;-1.690;2023-03-26T18:20:44;100738.16;;;15.46;52.24
27613;BME280;15036;48.094;-1.690;2023-03-26T18:23:24;100749.00;;;15.05;53.39
27613;BME280;15036;48.094;-1.690;2023-03-26T18:26:12;100747.63;;;15.50;52.93
27613;BME280;15036;48.094;-1.690;2023-03-26T18:28:40;100769.97;;;14.81;54.62
27613;BME280;15036;48.094;-1.690;2023-03-26T18:31:07;100776.66;;;14.67;55.25
27613;BME280;15036;48.094;-1.690;2023-03-26T18:33:42;100762.03;;;14.91;55.25